Civil Air Patrol

Glenn L. Martin Composite Squadron

Welcome to the Glenn L. Martin Composite Squadron Civil Air Patrol

 

We are the official auxiliary of the United States Air Force.

Our 3 main missions are cadet programs, aerospace education and emergency services.

Click each link to learn more about each mission.

 

Here is a short video from National Headquarters about CAP

 

 


 

 
Current METAR for KMTN (Martin State Airport)

KMTN 170600Z AUTO 18004KT 10SM BKN040 05/01 A3011 RMK AO2

 

Current TAF for KBWI (Baltimore Washington International)

TAF KBWI 170539Z 1706/1812 26007KT P6SM SCT040 SCT250 FM171400 30008KT P6SM SCT200 FM172000 30006KT P6SM SCT050 BKN200 FM180200 VRB03KT P6SM SCT050 BKN200 FM180800 00000KT P6SM SCT035 BKN200